Time;durP1;ratioP1;P1;durP2;ratioP2;P2;SDS_P1;SDS_P2;PMS_P1;PMS_P2;Temp;Humidity;BMP_temperature;BMP_pressure;BME280_temperature;BME280_humidity;BME280_pressure;Samples;Min_cycle;Max_cycle;Signal;HPM_P1;HPM_P2
2022/01/18 00:01:58;;;;;;;46.03;8.57;;;;;;;11.44;100.00;103660.38;5057929;28;20039;-54
2022/01/18 00:04:24;;;;;;;46.58;9.73;;;;;;;11.44;100.00;103659.50;5075816;28;20041;-51
2022/01/18 00:06:52;;;;;;;50.72;8.60;;;;;;;11.54;100.00;103664.91;5075598;28;20040;-52
2022/01/18 00:09:23;;;;;;;47.85;9.98;;;;;;;11.55;100.00;103664.81;5075651;28;20040;-55
2022/01/18 00:11:59;;;;;;;46.25;8.32;;;;;;;11.62;100.00;103678.50;5075063;28;20082;-52
2022/01/18 00:14:28;;;;;;;48.25;9.65;;;;;;;11.62;100.00;103674.00;5075059;28;20051;-53
2022/01/18 00:19:41;;;;;;;47.20;9.13;;;;;;;11.69;100.00;103682.38;5075200;28;20166;-55
2022/01/18 00:22:11;;;;;;;51.53;9.88;;;;;;;11.64;100.00;103681.91;5040514;28;20051;-55
2022/01/18 00:24:39;;;;;;;51.58;9.55;;;;;;;11.66;100.00;103689.81;5057482;28;20130;-54
2022/01/18 00:27:10;;;;;;;46.90;9.02;;;;;;;11.65;100.00;103693.47;5041275;28;20056;-52
2022/01/18 00:29:40;;;;;;;53.63;10.93;;;;;;;11.57;100.00;103689.63;5075828;28;20064;-54
2022/01/18 00:32:14;;;;;;;46.03;9.45;;;;;;;11.53;100.00;103690.84;5058449;28;20518;-52
2022/01/18 00:34:41;;;;;;;49.55;9.90;;;;;;;11.56;100.00;103695.13;5074959;28;20564;-51
2022/01/18 00:39:33;;;;;;;49.15;9.77;;;;;;;11.49;100.00;103700.16;5056773;28;20472;-55
2022/01/18 00:41:59;;;;;;;51.20;11.15;;;;;;;11.47;100.00;103702.97;5056844;28;20037;-55
2022/01/18 00:44:24;;;;;;;53.37;9.83;;;;;;;11.42;100.00;103694.50;5075066;28;20127;-54
2022/01/18 00:46:51;;;;;;;47.03;9.20;;;;;;;11.39;100.00;103694.72;5074970;28;20044;-54
2022/01/18 00:49:17;;;;;;;48.25;10.77;;;;;;;11.49;100.00;103700.16;5074952;28;20045;-53
2022/01/18 00:51:49;;;;;;;48.33;10.13;;;;;;;11.50;100.00;103701.84;5057459;28;20353;-52
2022/01/18 00:54:20;;;;;;;51.60;9.75;;;;;;;11.47;100.00;103707.47;5073923;28;20036;-51
2022/01/18 00:56:47;;;;;;;33.45;9.07;;;;;;;11.45;100.00;103710.31;5074472;28;20093;-52
2022/01/18 00:59:13;;;;;;;57.80;11.60;;;;;;;11.46;100.00;103709.31;5074379;28;20036;-51
2022/01/18 01:01:38;;;;;;;54.77;11.50;;;;;;;11.44;100.00;103715.78;5056256;28;20496;-56
2022/01/18 01:04:05;;;;;;;48.10;10.50;;;;;;;11.42;100.00;103709.69;5056284;28;20036;-54
2022/01/18 01:06:32;;;;;;;47.30;10.85;;;;;;;11.42;100.00;103709.69;5074510;28;20064;-51
2022/01/18 01:08:59;;;;;;;53.53;10.52;;;;;;;11.45;100.00;103709.44;5073938;28;20047;-52
2022/01/18 01:11:25;;;;;;;59.13;11.25;;;;;;;11.44;100.00;103710.41;5055851;28;20044;-53
2022/01/18 01:13:53;;;;;;;57.85;11.50;;;;;;;11.38;100.00;103703.75;5073765;28;20052;-56
2022/01/18 01:35:12;;;;;;;65.93;12.60;;;;;;;11.26;100.00;103700.28;5073520;28;20082;-51
2022/01/18 01:43:18;;;;;;;77.55;12.60;;;;;;;11.03;100.00;103688.84;5073989;28;20044;-50
2022/01/18 01:45:45;;;;;;;87.68;12.07;;;;;;;10.97;100.00;103689.34;5057097;28;20040;-53
2022/01/18 01:48:11;;;;;;;64.30;10.98;;;;;;;10.97;100.00;103694.72;5073958;28;20074;-52
2022/01/18 01:53:32;;;;;;;69.47;11.43;;;;;;;10.75;100.00;103694.63;5069186;28;20048;-55
2022/01/18 01:55:57;;;;;;;49.63;11.63;;;;;;;10.76;100.00;103692.84;5055726;28;20037;-54
2022/01/18 01:58:25;;;;;;;49.03;11.77;;;;;;;10.71;100.00;103693.19;5073636;28;20037;-54
2022/01/18 02:00:53;;;;;;;52.28;12.20;;;;;;;10.76;100.00;103690.16;5022639;28;20024;-52
2022/01/18 02:03:20;;;;;;;58.00;12.82;;;;;;;10.72;100.00;103694.91;5073433;28;20036;-54
2022/01/18 02:05:46;;;;;;;40.03;11.82;;;;;;;10.75;100.00;103691.13;5073505;28;20381;-53
2022/01/18 02:08:12;;;;;;;58.35;11.55;;;;;;;10.75;100.00;103691.13;5073195;28;20038;-51
2022/01/18 02:10:39;;;;;;;44.08;11.55;;;;;;;10.75;100.00;103694.63;5073670;28;20037;-54
2022/01/18 02:13:06;;;;;;;49.75;11.23;;;;;;;10.80;100.00;103694.28;5073498;28;20481;-52
2022/01/18 02:15:37;;;;;;;36.60;10.93;;;;;;;10.80;100.00;103690.72;5073369;28;20037;-52
2022/01/18 02:23:31;;;;;;;32.08;9.07;;;;;;;10.69;100.00;103696.97;5074621;28;20043;-55
2022/01/18 02:25:57;;;;;;;32.60;8.33;;;;;;;10.61;100.00;103700.28;5078263;28;20033;-55
2022/01/18 02:28:24;;;;;;;39.85;10.05;;;;;;;10.57;100.00;103704.16;5077688;28;20285;-54
2022/01/18 02:30:50;;;;;;;41.75;9.40;;;;;;;10.57;100.00;103707.72;5077658;28;20036;-53
2022/01/18 02:33:16;;;;;;;45.03;11.18;;;;;;;10.58;100.00;103708.53;5077553;28;20075;-53
2022/01/18 02:35:43;;;;;;;48.10;8.75;;;;;;;10.50;100.00;103701.16;5042867;28;20496;-52
2022/01/18 02:38:08;;;;;;;45.30;11.50;;;;;;;10.48;100.00;103689.72;5077382;28;20045;-54
2022/01/18 02:40:34;;;;;;;51.03;10.97;;;;;;;10.48;100.00;103692.38;5059049;28;20546;-54
2022/01/18 02:43:46;;;;;;;47.28;12.13;;;;;;;10.46;100.00;103697.88;5077085;28;20037;-52
2022/01/18 02:45:49;;;;;;;37.75;11.77;;;;;;;10.43;100.00;103687.44;5076837;28;20065;-55
2022/01/18 02:48:15;;;;;;;63.13;11.70;;;;;;;10.40;100.00;103689.47;5076869;28;20487;-53
2022/01/18 02:50:41;;;;;;;48.33;11.65;;;;;;;10.38;100.00;103699.44;5059047;28;20051;-52
2022/01/18 02:53:06;;;;;;;75.65;12.40;;;;;;;10.41;100.00;103691.19;5076858;28;20047;-52
2022/01/18 02:55:32;;;;;;;82.47;11.93;;;;;;;10.41;100.00;103705.44;5077087;28;20037;-51
2022/01/18 02:58:04;;;;;;;50.40;12.40;;;;;;;10.47;100.00;103698.72;5076632;28;20106;-54
2022/01/18 03:00:42;;;;;;;74.90;13.13;;;;;;;10.34;100.00;103693.47;5076467;28;20036;-52
2022/01/18 03:03:12;;;;;;;89.78;15.20;;;;;;;10.44;100.00;103688.28;5077196;28;20036;-52
2022/01/18 03:05:42;;;;;;;68.00;11.85;;;;;;;10.23;100.00;103697.00;5076610;28;20045;-54
2022/01/18 03:08:10;;;;;;;44.10;11.98;;;;;;;10.27;100.00;103697.63;5076897;28;20047;-54
2022/01/18 03:10:39;;;;;;;52.67;11.27;;;;;;;10.16;100.00;103699.34;5076525;28;20033;-55
2022/01/18 03:13:05;;;;;;;51.35;10.48;;;;;;;10.13;100.00;103710.25;5076211;28;20082;-54
2022/01/18 03:15:33;;;;;;;59.28;11.75;;;;;;;9.96;100.00;103702.75;5058875;28;20170;-54
2022/01/18 03:18:00;;;;;;;52.25;11.68;;;;;;;10.14;100.00;103714.63;5076471;28;20374;-51
2022/01/18 03:20:25;;;;;;;56.60;11.82;;;;;;;10.04;100.00;103702.97;5076365;28;20111;-52
2022/01/18 03:22:51;;;;;;;42.00;12.47;;;;;;;9.99;100.00;103714.03;5059055;28;20509;-53
2022/01/18 03:28:04;;;;;;;51.75;12.35;;;;;;;10.24;100.00;103711.25;5075864;28;20052;-54
2022/01/18 03:30:41;;;;;;;49.33;13.68;;;;;;;10.33;100.00;103714.03;5076542;28;20043;-51
2022/01/18 03:33:10;;;;;;;30.60;10.07;;;;;;;10.16;100.00;103718.06;5076451;28;20071;-51
2022/01/18 03:35:36;;;;;;;95.18;12.65;;;;;;;10.21;100.00;103715.00;5057336;28;20044;-51
2022/01/18 03:38:02;;;;;;;65.15;13.23;;;;;;;10.16;100.00;103712.72;5058561;28;20037;-53
2022/01/18 03:40:28;;;;;;;;;;;;;;;10.24;100.00;103714.75;5058828;28;20131;-53
2022/01/18 03:42:55;;;;;;;70.00;12.27;;;;;;;10.19;100.00;103712.47;5058011;28;20376;-52
2022/01/18 03:45:29;;;;;;;52.15;10.98;;;;;;;10.22;100.00;103718.53;5076325;28;20032;-54
2022/01/18 03:47:57;;;;;;;67.07;11.68;;;;;;;10.28;100.00;103721.59;5041863;28;20131;-53
2022/01/18 03:50:23;;;;;;;54.42;12.32;;;;;;;10.39;100.00;103718.06;5076050;28;20041;-53
2022/01/18 03:52:49;;;;;;;56.88;12.18;;;;;;;10.27;100.00;103724.38;5057644;28;20469;-51
2022/01/18 03:55:18;;;;;;;56.65;11.60;;;;;;;10.23;100.00;103717.56;5075452;28;20041;-52
2022/01/18 03:57:44;;;;;;;95.57;13.82;;;;;;;10.36;100.00;103726.31;5075382;28;20549;-51
2022/01/18 04:00:18;;;;;;;80.57;11.43;;;;;;;10.39;100.00;103726.09;5075905;28;20116;-52
2022/01/18 04:02:45;;;;;;;39.63;11.27;;;;;;;10.29;100.00;103734.00;5076032;28;20356;-52
2022/01/18 04:05:11;;;;;;;;;;;;;;;10.38;100.00;103732.41;5058006;28;20037;-53
2022/01/18 04:07:37;;;;;;;46.10;11.35;;;;;;;10.25;100.00;103726.31;5075478;28;19912;-53
2022/01/18 04:10:05;;;;;;;47.60;12.80;;;;;;;10.15;100.00;103731.56;5075218;28;20163;-53
2022/01/18 04:12:30;;;;;;;51.45;13.07;;;;;;;10.32;100.00;103733.75;5075164;28;20103;-52
2022/01/18 04:14:57;;;;;;;56.92;12.45;;;;;;;10.36;100.00;103738.84;5075836;28;20044;-52
2022/01/18 04:28:13;;;;;;;75.70;15.63;;;;;;;10.35;100.00;103746.00;5056893;28;20041;-55
2022/01/18 04:30:39;;;;;;;41.50;13.23;;;;;;;10.36;100.00;103746.88;5057659;28;20057;-54
2022/01/18 04:33:04;;;;;;;61.83;13.90;;;;;;;10.35;100.00;103747.84;5040496;28;20060;-54
2022/01/18 04:35:30;;;;;;;45.67;15.57;;;;;;;10.38;100.00;103742.25;5074665;28;20049;-54
2022/01/18 04:37:55;;;;;;;56.27;12.73;;;;;;;10.45;100.00;103744.34;5040948;28;20040;-54
2022/01/18 04:40:27;;;;;;;43.03;12.50;;;;;;;10.27;100.00;103740.41;5040427;28;20044;-55
2022/01/18 04:50:46;;;;;;;41.88;12.95;;;;;;;10.25;100.00;103739.69;5074367;28;20059;-56
2022/01/18 04:53:12;;;;;;;68.90;13.93;;;;;;;10.30;100.00;103742.84;5074064;28;20500;-53
2022/01/18 04:55:37;;;;;;;59.83;14.00;;;;;;;10.23;100.00;103753.19;5056755;28;20479;-52
2022/01/18 04:58:03;;;;;;;53.73;12.87;;;;;;;10.24;100.00;103751.38;5074596;28;20733;-55
2022/01/18 05:00:28;;;;;;;75.40;13.63;;;;;;;10.28;100.00;103744.81;5075032;28;20067;-54
2022/01/18 05:02:54;;;;;;;44.97;12.13;;;;;;;10.17;100.00;103746.50;5078374;28;20464;-53
2022/01/18 05:05:29;;;;;;;97.55;15.13;;;;;;;10.18;100.00;103744.69;5059333;28;20448;-51
2022/01/18 05:07:59;;;;;;;51.95;13.75;;;;;;;10.20;100.00;103758.78;5076146;28;20040;-51
2022/01/18 05:10:27;;;;;;;63.08;14.38;;;;;;;10.31;100.00;103752.56;5075897;28;20044;-50
2022/01/18 05:12:55;;;;;;;201.13;20.88;;;;;;;10.31;100.00;103745.41;5075006;28;20052;-53
2022/01/18 05:23:06;;;;;;;59.97;12.05;;;;;;;10.42;100.00;103749.94;5082659;28;20055;-52
2022/01/18 05:25:32;;;;;;;54.67;12.27;;;;;;;10.48;100.00;103751.25;5065285;28;20033;-51
2022/01/18 05:27:59;;;;;;;;;;;;;;;10.29;100.00;103757.19;5075209;28;20036;-51
2022/01/18 05:30:26;;;;;;;48.25;10.18;;;;;;;10.42;100.00;103749.94;5056490;28;19999;-49
2022/01/18 05:32:51;;;;;;;43.53;9.27;;;;;;;10.45;100.00;103749.69;5074038;28;20060;-52
2022/01/18 05:35:17;;;;;;;35.13;7.53;;;;;;;10.47;100.00;103750.41;5074436;28;20033;-50
2022/01/18 05:37:42;;;;;;;39.92;7.75;;;;;;;10.43;100.00;103740.94;5056889;28;20480;-51
2022/01/18 05:40:08;;;;;;;78.77;10.00;;;;;;;10.46;100.00;103753.19;5074150;28;20481;-49
2022/01/18 05:42:34;;;;;;;39.83;8.20;;;;;;;10.44;100.00;103739.97;5056037;28;20052;-52
2022/01/18 05:44:59;;;;;;;36.30;7.30;;;;;;;10.33;100.00;103739.94;5056151;28;20041;-52
2022/01/18 05:47:24;;;;;;;67.67;8.33;;;;;;;10.22;100.00;103742.63;5073721;28;20128;-52
2022/01/18 05:49:50;;;;;;;49.57;8.50;;;;;;;10.08;100.00;103746.38;5073663;28;20043;-51
2022/01/18 05:52:16;;;;;;;62.65;10.38;;;;;;;10.10;100.00;103739.94;5056507;28;20552;-50
2022/01/18 05:54:41;;;;;;;72.80;10.47;;;;;;;10.17;100.00;103742.97;5056042;28;20044;-51
2022/01/18 05:57:07;;;;;;;90.70;10.53;;;;;;;10.11;100.00;103738.94;5073871;28;20038;-52
2022/01/18 05:59:38;;;;;;;60.40;10.70;;;;;;;10.02;100.00;103734.34;5073665;28;20272;-52
2022/01/18 06:02:15;;;;;;;38.30;9.07;;;;;;;9.94;100.00;103734.09;5073575;28;20477;-54
2022/01/18 06:07:39;;;;;;;74.57;10.15;;;;;;;10.06;100.00;103729.63;5039352;28;19918;-53
2022/01/18 06:10:04;;;;;;;58.80;11.63;;;;;;;10.07;100.00;103734.81;5073229;28;20396;-51
2022/01/18 06:12:30;;;;;;;78.07;11.60;;;;;;;10.05;100.00;103742.13;5073197;28;20040;-53
2022/01/18 06:14:56;;;;;;;55.30;9.55;;;;;;;9.99;100.00;103739.94;5055152;28;20490;-53
2022/01/18 06:17:21;;;;;;;92.93;11.43;;;;;;;9.93;100.00;103746.59;5073484;28;20120;-53
2022/01/18 06:19:47;;;;;;;80.77;10.83;;;;;;;9.94;100.00;103740.28;5073279;28;20036;-53
2022/01/18 06:22:12;;;;;;;89.17;12.13;;;;;;;9.89;100.00;103747.81;5073494;28;20699;-53
2022/01/18 06:24:38;;;;;;;64.13;12.77;;;;;;;9.99;100.00;103739.94;5073078;28;20040;-52
2022/01/18 06:27:03;;;;;;;120.13;10.97;;;;;;;9.77;100.00;103746.94;5055337;28;20419;-51
2022/01/18 06:29:29;;;;;;;110.85;12.13;;;;;;;9.73;100.00;103740.16;5055618;28;20123;-54
2022/01/18 06:31:54;;;;;;;63.60;10.98;;;;;;;10.10;100.00;103747.13;5073403;28;20109;-54
2022/01/18 06:34:20;;;;;;;65.60;12.27;;;;;;;10.02;100.00;103742.38;5055866;28;20388;-55
2022/01/18 06:36:45;;;;;;;62.00;13.63;;;;;;;10.30;100.00;103749.06;5055783;28;20056;-52
2022/01/18 06:39:11;;;;;;;64.17;11.83;;;;;;;10.44;100.00;103750.66;5073139;28;20048;-53
2022/01/18 06:41:37;;;;;;;112.47;13.77;;;;;;;10.10;100.00;103747.94;5072875;28;20473;-51
2022/01/18 06:44:03;;;;;;;66.85;11.52;;;;;;;10.21;100.00;103748.94;5054940;28;20109;-52
2022/01/18 06:46:28;;;;;;;87.25;15.43;;;;;;;10.14;100.00;103754.75;5072815;28;20468;-52
2022/01/18 06:48:54;;;;;;;54.47;11.70;;;;;;;9.99;100.00;103748.78;5055239;28;20448;-53
2022/01/18 06:51:19;;;;;;;73.97;12.30;;;;;;;10.16;100.00;103755.50;5072637;28;20032;-52
2022/01/18 06:53:47;;;;;;;66.45;13.88;;;;;;;10.17;100.00;103751.00;5072503;28;20098;-53
2022/01/18 06:56:17;;;;;;;103.25;13.32;;;;;;;10.19;100.00;103749.91;5073064;28;20068;-54
2022/01/18 06:58:44;;;;;;;94.55;13.50;;;;;;;10.24;100.00;103748.69;5072673;28;20138;-54
2022/01/18 07:01:11;;;;;;;87.35;12.40;;;;;;;10.02;100.00;103750.38;5072645;28;20484;-55
2022/01/18 07:03:37;;;;;;;49.28;11.73;;;;;;;10.03;100.00;103750.28;5072651;28;20484;-53
2022/01/18 07:06:02;;;;;;;42.45;9.73;;;;;;;10.03;100.00;103760.09;5072580;28;20463;-51
2022/01/18 07:08:28;;;;;;;48.37;12.13;;;;;;;10.14;100.00;103756.59;5073144;28;20048;-52
2022/01/18 07:10:53;;;;;;;56.07;13.07;;;;;;;10.10;100.00;103766.66;5074786;28;20277;-51
2022/01/18 07:13:19;;;;;;;70.33;15.07;;;;;;;9.98;100.00;103764.97;5041979;28;20444;-53
2022/01/18 07:15:45;;;;;;;71.78;12.90;;;;;;;9.87;100.00;103771.97;5076404;28;20108;-53
2022/01/18 07:18:10;;;;;;;42.07;11.83;;;;;;;9.98;100.00;103762.28;5076729;28;20043;-55
2022/01/18 07:20:38;;;;;;;59.60;12.25;;;;;;;10.03;100.00;103778.81;5059004;28;20131;-55
2022/01/18 07:23:07;;;;;;;47.00;12.02;;;;;;;10.01;100.00;103773.59;5058390;28;20036;-54
2022/01/18 07:25:33;;;;;;;45.13;11.10;;;;;;;9.87;100.00;103782.69;5041862;28;20115;-50
2022/01/18 07:27:58;;;;;;;33.50;8.73;;;;;;;9.98;100.00;103773.00;5076392;28;20525;-51
2022/01/18 07:30:24;;;;;;;44.70;12.10;;;;;;;9.83;100.00;103775.88;5075833;28;20123;-54
2022/01/18 07:32:50;;;;;;;44.70;9.73;;;;;;;10.05;100.00;103771.53;5075865;28;20410;-53
2022/01/18 07:35:16;;;;;;;43.38;11.35;;;;;;;10.25;100.00;103769.94;5075642;28;20407;-55
2022/01/18 07:37:41;;;;;;;44.00;11.75;;;;;;;10.28;100.00;103776.91;5058083;28;20118;-52
2022/01/18 07:40:08;;;;;;;54.63;12.03;;;;;;;9.58;100.00;103766.22;5076229;28;20044;-52
2022/01/18 07:42:34;;;;;;;60.60;12.27;;;;;;;9.26;100.00;103783.69;5075549;28;20309;-52
2022/01/18 07:44:59;;;;;;;63.27;11.97;;;;;;;9.41;100.00;103781.69;5075620;28;20122;-54
2022/01/18 07:47:25;;;;;;;40.70;11.33;;;;;;;9.75;100.00;103780.97;5076134;28;20757;-51
2022/01/18 07:49:51;;;;;;;67.50;14.17;;;;;;;9.75;100.00;103784.47;5057674;28;20369;-53
2022/01/18 07:52:17;;;;;;;110.82;17.60;;;;;;;9.36;100.00;103791.00;5057620;28;20052;-50
2022/01/18 07:54:42;;;;;;;111.78;14.70;;;;;;;9.37;100.00;103796.25;5058149;28;20048;-53
2022/01/18 07:57:08;;;;;;;96.32;18.48;;;;;;;9.02;100.00;103789.88;5075977;28;20089;-52
2022/01/18 07:59:34;;;;;;;117.15;23.05;;;;;;;9.32;100.00;103803.75;5057624;28;20076;-53
2022/01/18 08:01:59;;;;;;;47.17;10.70;;;;;;;9.17;100.00;103795.06;5075553;28;20461;-52
2022/01/18 08:04:25;;;;;;;65.40;13.40;;;;;;;9.32;100.00;103787.72;5057733;28;20132;-55
2022/01/18 08:06:50;;;;;;;132.43;20.63;;;;;;;9.52;100.00;103786.22;5057389;28;20298;-52
2022/01/18 08:09:19;;;;;;;63.35;10.52;;;;;;;9.32;100.00;103783.25;5075106;28;20132;-50
2022/01/18 08:11:48;;;;;;;63.85;10.57;;;;;;;9.32;100.00;103790.38;5075389;28;20036;-52
2022/01/18 08:14:15;;;;;;;65.85;10.15;;;;;;;9.62;100.00;103791.75;5075030;28;20089;-51
2022/01/18 08:17:00;;;;;;;63.63;10.93;;;;;;;9.61;100.00;103790.88;5075059;28;20063;-52
2022/01/18 08:19:30;;;;;;;110.80;13.45;;;;;;;9.52;100.00;103782.69;5076023;28;20045;-52
2022/01/18 08:21:57;;;;;;;180.80;16.55;;;;;;;9.26;100.00;103794.38;5074630;28;20070;-54
2022/01/18 08:24:23;;;;;;;191.97;17.87;;;;;;;8.97;100.00;103800.03;5058035;28;20049;-51
2022/01/18 08:26:48;;;;;;;132.32;14.50;;;;;;;9.12;100.00;103807.88;5075186;28;20086;-54
2022/01/18 08:29:14;;;;;;;222.77;28.27;;;;;;;9.27;100.00;103811.25;5057100;28;20102;-55
2022/01/18 08:31:40;;;;;;;206.05;25.77;;;;;;;9.19;100.00;103809.13;5040595;28;20040;-54
2022/01/18 08:34:06;;;;;;;166.98;25.63;;;;;;;9.24;100.00;103795.44;5075079;28;20063;-52
2022/01/18 08:36:31;;;;;;;103.20;16.63;;;;;;;9.46;100.00;103795.56;5074987;28;20052;-53
2022/01/18 08:38:57;;;;;;;68.22;14.40;;;;;;;9.92;100.00;103794.84;5057017;28;20439;-54
2022/01/18 08:41:22;;;;;;;90.80;11.60;;;;;;;9.67;100.00;103794.03;5075157;28;20048;-53
2022/01/18 08:43:49;;;;;;;180.10;15.77;;;;;;;9.47;100.00;103801.75;5074460;28;20082;-51
2022/01/18 08:46:16;;;;;;;100.90;11.68;;;;;;;9.50;100.00;103793.50;5075308;28;20538;-51
2022/01/18 08:48:41;;;;;;;87.07;11.95;;;;;;;9.70;100.00;103796.50;5074260;28;20067;-53
2022/01/18 08:51:08;;;;;;;193.18;13.30;;;;;;;9.74;100.00;103804.16;5074500;28;20480;-50
2022/01/18 08:53:35;;;;;;;107.13;11.43;;;;;;;9.84;100.00;103808.81;5074769;28;20043;-54
2022/01/18 08:56:00;;;;;;;145.48;11.70;;;;;;;9.26;100.00;103807.75;5075542;28;20032;-52
2022/01/18 08:58:26;;;;;;;104.22;12.25;;;;;;;9.58;100.00;103799.13;5074219;28;20319;-52
2022/01/18 09:00:52;;;;;;;172.32;14.35;;;;;;;9.57;100.00;103802.75;5074209;28;20492;-52
2022/01/18 09:03:17;;;;;;;115.03;11.73;;;;;;;9.51;100.00;103802.38;5074291;28;20040;-53
2022/01/18 09:05:45;;;;;;;126.85;12.00;;;;;;;9.48;100.00;103808.81;5075019;28;20342;-52
2022/01/18 09:08:12;;;;;;;124.35;12.35;;;;;;;9.57;100.00;103802.75;5056463;28;20056;-54
2022/01/18 09:10:39;;;;;;;76.43;10.60;;;;;;;9.74;100.00;103803.31;5074217;28;20050;-51
2022/01/18 09:13:05;;;;;;;109.45;11.02;;;;;;;9.68;100.00;103801.94;5056397;28;20114;-52
2022/01/18 09:15:30;;;;;;;117.35;12.55;;;;;;;9.54;100.00;103803.00;5074508;28;20074;-51
2022/01/18 09:17:56;;;;;;;111.93;10.63;;;;;;;9.98;100.00;103805.91;5056229;28;20123;-51
2022/01/18 09:20:24;;;;;;;62.72;8.55;;;;;;;9.84;100.00;103800.78;5074401;28;20103;-53
2022/01/18 09:22:52;;;;;;;109.15;9.52;;;;;;;9.36;100.00;103807.03;5074023;28;20460;-52
2022/01/18 09:25:21;;;;;;;123.15;11.00;;;;;;;9.61;100.00;103798.88;5074378;28;20040;-54
2022/01/18 09:27:47;;;;;;;54.63;8.95;;;;;;;10.09;100.00;103791.72;5073928;28;20033;-50
2022/01/18 09:30:15;;;;;;;102.72;10.15;;;;;;;10.26;100.00;103802.91;5074282;28;20062;-50
2022/01/18 09:32:44;;;;;;;110.45;12.25;;;;;;;10.19;100.00;103799.88;5055522;28;20047;-50
2022/01/18 09:35:10;;;;;;;110.55;10.55;;;;;;;10.16;100.00;103806.31;5074044;28;20029;-53
2022/01/18 09:37:36;;;;;;;99.97;9.30;;;;;;;10.13;100.00;103805.69;5073624;28;20056;-55
2022/01/18 09:40:03;;;;;;;95.68;10.35;;;;;;;10.01;100.00;103804.84;5073964;28;20041;-52
2022/01/18 09:42:33;;;;;;;172.43;11.18;;;;;;;9.95;100.00;103816.00;5073180;28;20484;-52
2022/01/18 09:45:12;;;;;;;65.97;8.05;;;;;;;9.60;100.00;103815.88;5039046;28;20051;-54
2022/01/18 09:47:41;;;;;;;150.15;12.95;;;;;;;9.52;100.00;103817.44;5039141;28;20044;-52
2022/01/18 09:50:09;;;;;;;89.38;8.50;;;;;;;9.50;100.00;103822.03;5073361;28;20036;-51
2022/01/18 09:52:36;;;;;;;178.10;12.32;;;;;;;9.57;100.00;103813.44;5073184;28;20101;-52
2022/01/18 09:55:03;;;;;;;117.53;10.60;;;;;;;9.62;100.00;103821.13;5055346;28;20404;-51
2022/01/18 09:57:30;;;;;;;43.88;8.07;;;;;;;10.14;100.00;103821.63;5073203;28;20047;-52
2022/01/18 09:59:56;;;;;;;;;;;;;;;10.38;100.00;103825.19;5055837;28;20053;-54
2022/01/18 10:02:21;;;;;;;109.57;10.27;;;;;;;10.17;100.00;103824.06;5073231;28;19916;-54
2022/01/18 10:04:48;;;;;;;62.93;10.23;;;;;;;9.84;100.00;103824.84;5073691;28;20418;-50
2022/01/18 10:07:14;;;;;;;153.25;13.48;;;;;;;9.92;100.00;103816.22;5073234;28;20078;-54
2022/01/18 10:09:40;;;;;;;87.53;11.17;;;;;;;10.03;100.00;103826.94;5073620;28;20127;-50
2022/01/18 10:12:13;;;;;;;130.85;13.45;;;;;;;10.15;100.00;103828.69;5038951;28;20286;-53
2022/01/18 10:14:51;;;;;;;93.63;12.38;;;;;;;10.23;100.00;103829.91;5055466;28;20044;-51
2022/01/18 10:17:29;;;;;;;101.32;12.13;;;;;;;10.35;100.00;103834.28;5056684;28;20052;-51
2022/01/18 10:20:02;;;;;;;135.68;13.70;;;;;;;10.64;100.00;103830.31;5074955;28;20520;-54
2022/01/18 10:22:39;;;;;;;61.30;10.38;;;;;;;10.58;100.00;103837.88;5073419;28;20071;-52
2022/01/18 10:25:16;;;;;;;81.05;11.07;;;;;;;10.54;100.00;103832.88;5073616;28;20032;-52
2022/01/18 10:27:42;;;;;;;73.43;9.50;;;;;;;10.68;100.00;103838.00;5073955;28;20037;-53
2022/01/18 10:30:15;;;;;;;83.22;11.52;;;;;;;10.72;100.00;103839.44;5073281;28;20029;-52
2022/01/18 10:32:42;;;;;;;74.35;12.07;;;;;;;10.53;100.00;103828.50;5073220;28;20044;-51
2022/01/18 10:35:10;;;;;;;75.88;11.70;;;;;;;10.39;100.00;103825.06;5055123;28;20110;-53
2022/01/18 10:37:45;;;;;;;63.55;11.82;;;;;;;10.33;100.00;103818.38;5055605;28;20234;-54
2022/01/18 10:40:17;;;;;;;59.95;13.65;;;;;;;10.25;100.00;103815.44;5073368;28;20116;-54
2022/01/18 10:42:52;;;;;;;66.22;11.95;;;;;;;10.65;100.00;103813.28;5055751;28;20119;-53
2022/01/18 10:45:29;;;;;;;46.75;12.48;;;;;;;10.98;100.00;103811.56;5075476;28;20399;-54
2022/01/18 10:48:00;;;;;;;;;;;;;;;10.45;100.00;103813.91;5077949;28;20029;-53
2022/01/18 10:50:34;;;;;;;42.08;11.75;;;;;;;11.09;100.00;103810.69;5077303;28;19970;-53
2022/01/18 10:53:17;;;;;;;54.72;9.43;;;;;;;11.34;100.00;103804.13;5077105;28;20041;-50
2022/01/18 10:55:44;;;;;;;49.22;11.30;;;;;;;11.56;100.00;103807.69;5042679;28;20401;-50
2022/01/18 10:58:23;;;;;;;51.92;10.55;;;;;;;11.51;100.00;103807.22;5043105;28;20074;-55
2022/01/18 11:00:48;;;;;;;44.22;11.15;;;;;;;10.99;100.00;103795.34;5077070;28;20068;-53
2022/01/18 11:03:14;;;;;;;50.60;10.27;;;;;;;11.00;100.00;103799.72;5076095;28;20541;-51
2022/01/18 11:05:43;;;;;;;35.53;10.15;;;;;;;10.99;100.00;103794.50;5077551;28;20041;-51
2022/01/18 11:08:08;;;;;;;59.78;12.02;;;;;;;11.06;100.00;103798.38;5076604;28;20060;-52
2022/01/18 11:10:36;;;;;;;65.80;11.32;;;;;;;11.32;100.00;103790.88;5076303;28;20558;-55
2022/01/18 11:13:06;;;;;;;48.28;11.13;;;;;;;11.27;100.00;103782.34;5077082;28;20083;-52
2022/01/18 11:15:36;;;;;;;55.90;12.82;;;;;;;11.55;100.00;103785.41;5076123;28;20060;-53
2022/01/18 11:18:07;;;;;;;58.35;13.95;;;;;;;11.81;100.00;103776.97;5076341;28;20044;-50
2022/01/18 11:20:35;;;;;;;58.97;16.15;;;;;;;11.65;100.00;103781.94;5059357;28;20047;-52
2022/01/18 11:23:04;;;;;;;65.60;15.23;;;;;;;11.15;100.00;103778.03;5076730;28;20127;-53
2022/01/18 11:25:30;;;;;;;59.55;14.95;;;;;;;11.03;100.00;103783.41;5076381;28;20037;-55
2022/01/18 11:27:58;;;;;;;63.80;16.00;;;;;;;11.30;100.00;103783.94;5076803;28;20358;-52
2022/01/18 11:30:32;;;;;;;69.10;15.38;;;;;;;11.34;100.00;103782.69;5075788;28;20029;-51
2022/01/18 11:33:02;;;;;;;68.95;16.85;;;;;;;11.36;100.00;103785.25;5076022;28;20036;-54
2022/01/18 11:35:47;;;;;;;78.07;16.15;;;;;;;11.84;100.00;103779.41;5057892;28;20040;-51
2022/01/18 11:38:33;;;;;;;83.65;16.70;;;;;;;11.44;100.00;103789.00;5076805;28;20409;-54
2022/01/18 11:40:59;;;;;;;67.68;15.63;;;;;;;11.70;100.00;103793.13;5076371;28;20044;-52
2022/01/18 11:43:43;;;;;;;54.10;15.18;;;;;;;12.26;100.00;103789.25;5076489;28;20131;-51
2022/01/18 11:46:26;;;;;;;54.70;14.52;;;;;;;12.13;100.00;103789.47;5075715;28;20033;-51
2022/01/18 11:49:21;;;;;;;59.40;14.05;;;;;;;11.37;100.00;103786.94;5058017;28;20127;-49
2022/01/18 11:51:54;;;;;;;56.78;14.45;;;;;;;11.91;100.00;103783.25;5074711;28;20053;-52
2022/01/18 11:54:27;;;;;;;61.03;14.88;;;;;;;11.68;100.00;103784.34;5057609;28;20143;-56
2022/01/18 11:56:53;;;;;;;54.83;14.30;;;;;;;11.77;100.00;103784.44;5083299;28;20116;-52
2022/01/18 11:59:21;;;;;;;48.83;14.88;;;;;;;12.15;100.00;103789.34;5060485;28;20463;-54
2022/01/18 12:01:51;;;;;;;56.30;15.43;;;;;;;11.83;100.00;103791.09;5075540;28;20064;-52
2022/01/18 12:04:46;;;;;;;61.58;16.83;;;;;;;11.93;100.00;103787.63;5075442;28;20280;-53
2022/01/18 12:07:31;;;;;;;66.22;17.70;;;;;;;12.22;100.00;103792.31;5075878;28;20479;-53
2022/01/18 12:09:57;;;;;;;58.35;17.92;;;;;;;11.72;100.00;103780.44;5076081;28;20062;-51
2022/01/18 12:12:41;;;;;;;57.88;17.90;;;;;;;12.14;100.00;103791.16;5075487;28;20060;-53
2022/01/18 12:15:16;;;;;;;55.33;18.23;;;;;;;12.11;100.00;103790.56;5040910;28;20048;-54
2022/01/18 12:17:49;;;;;;;58.03;18.50;;;;;;;12.59;100.00;103791.78;5057448;28;20639;-52
2022/01/18 12:20:32;;;;;;;52.35;17.98;;;;;;;12.86;100.00;103790.28;5075235;28;20048;-53